LTCG

Trabzon International Airport

Trabzon, Turkey
TAF LTCG 212240Z 2200/2224 VRB02KT 9999 BKN100 BECMG 2206/2209 30012KT BKN035 BECMG 2209/2211 -SHRA SCT015 BKN028 PROB40 2211/2215 3500 BR BKN008 BKN025 BECMG 2214/2217 VRB02KT TEMPO 2214/2218 BKN006 BKN025
Issued Valid From Valid To
Jan-21 @ 22:40 UTC
(2 hours ago)
Jan-22 @ 00:00 UTC
(29 minutes ago)
Jan-23 @ 00:00 UTC
(in 24 hours)
Jan-22 @ 00:00 to Jan-22 @ 06:00
TAF LTCG 212240Z 2200/2224 VRB02KT 9999 BKN100
Wind Visibility Clouds
Variable at 2 knots 10,000+ meters
  • Broken at 10,000' AGL
Becoming Jan-22 @ 06:00 to Jan-22 @ 09:00
BECMG 2206/2209 30012KT BKN035
Wind Visibility Clouds
300° at 12 knots 10,000+ meters
  • Broken at 3,500' AGL
Becoming Jan-22 @ 09:00 to Jan-22 @ 14:00
BECMG 2209/2211 -SHRA SCT015 BKN028
Wind Visibility Clouds Conditions
300° at 12 knots 10,000+ meters
  • Scattered at 1,500' AGL
  • Broken at 2,800' AGL
  • Light Rain
Probable  (Probability 40%) Jan-22 @ 11:00 to Jan-22 @ 15:00
PROB40 2211/2215 3500 BR BKN008 BKN025
Visibility Clouds Conditions
3,492 meters
  • Broken at 800' AGL
  • Broken at 2,500' AGL
  • Mist
Temporary Jan-22 @ 14:00 to Jan-22 @ 18:00
TEMPO 2214/2218 BKN006 BKN025
Clouds
  • Broken at 600' AGL
  • Broken at 2,500' AGL
Becoming Jan-22 @ 14:00 to Jan-23 @ 00:00
BECMG 2214/2217 VRB02KT
Wind Visibility Clouds Conditions
Variable at 2 knots 10,000+ meters
  • Scattered at 1,500' AGL
  • Broken at 2,800' AGL
  • Light Rain
TAF LTCG 212240Z 2200/2224 VRB02KT 9999 BKN100 BECMG 2206/2209 30012KT BKN035 BECMG 2209/2211 -SHRA SCT015 BKN028 PROB40 2211/2215 3500 BR BKN008 BKN025 BECMG 2214/2217 VRB02KT TEMPO 2214/2218 BKN006 BKN025
Issued Jan-21 @ 22:40 UTC
(2 hours ago)
Valid From Jan-22 @ 00:00 UTC
(29 minutes ago)
Valid To Jan-23 @ 00:00 UTC
(in 24 hours)
Jan-22 @ 00:00 - Jan-22 @ 06:00
Wind Visibility
Variable at 2 knots 10,000+ meters
Clouds
  • Broken at 10,000' AGL
Becoming Jan-22 @ 06:00 - Jan-22 @ 09:00
Wind Visibility
300° at 12 knots 10,000+ meters
Clouds
  • Broken at 3,500' AGL
Becoming Jan-22 @ 09:00 - Jan-22 @ 14:00
Wind Visibility
300° at 12 knots 10,000+ meters
Clouds
  • Scattered at 1,500' AGL
  • Broken at 2,800' AGL
Conditions
  • Light Rain
Probability 40% Probable Jan-22 @ 11:00 - Jan-22 @ 15:00
Clouds
  • Broken at 800' AGL
  • Broken at 2,500' AGL
Conditions
  • Mist
Temporary Jan-22 @ 14:00 - Jan-22 @ 18:00
Clouds
  • Broken at 600' AGL
  • Broken at 2,500' AGL
Becoming Jan-22 @ 14:00 - Jan-23 @ 00:00
Wind Visibility
Variable at 2 knots 10,000+ meters
Clouds
  • Scattered at 1,500' AGL
  • Broken at 2,800' AGL
Conditions
  • Light Rain